Kristina — SFB8756 — position and weather

sailwx.info

Track history (hours):
 
Tides and Currents Weather Stations Pressure Air Temp Water Temp Dewpoint Dewpoint Depression Visibility Wind Speed Wind Dir Waves Ship Positions

Kristina

Last reported at 2017-Jan-29 04:23 UTC. Time now 2017-Feb-27 02:06 UTC.
Position N 55°44' E 014°32'.
Warning: this ship's position is 28 days out of date.

Length 11 m; draft 2 m.

Type: Fishing. MMSI: 265630900.

Date/timePositionNaut miles runAvg speedWind from/ knotsBaromVisibWave heightAir tempDewpointWater temp
2017-Jan-29 04:23N 55°44' E 014°32'6 7.0
2017-Jan-29 03:32N 55°38' E 014°28'7 6.9
2017-Jan-29 02:30N 55°32' E 014°23'7 7.3
2017-Jan-29 01:33N 55°26' E 014°18'7 6.8
2017-Jan-29 00:33N 55°20' E 014°11'7 6.8
2017-Jan-28 23:33N 55°19' E 013°59'7 6.5
2017-Jan-28 22:32N 55°19' E 013°47'20 6.4
2017-Jan-28 19:25N 55°18' E 013°12'6 6.2
2017-Jan-28 18:25N 55°18' E 013°01'5 6.1
2017-Jan-28 17:33N 55°18' E 012°52'5 4.5
2017-Jan-28 16:24N 55°21' E 012°44'5 6.1
2017-Jan-28 15:33N 55°26' E 012°44'6 6.0
2017-Jan-28 14:34N 55°32' E 012°46'6 6.0
2017-Jan-28 13:33N 55°36' E 012°52'5 5.0
2017-Jan-28 12:33N 55°41' E 012°55'4 4.1
2017-Jan-28 11:33N 55°45' E 012°54'2 2.4
2017-Jan-28 10:33N 55°48' E 012°54'4 4.0
2017-Jan-28 09:33N 55°49' E 012°47'1 0.9
2017-Jan-28 08:33N 55°49' E 012°47'0 0.4
2017-Jan-28 07:33N 55°49' E 012°47'1 0.8
2017-Jan-28 06:33N 55°48' E 012°48'3 3.4
2017-Jan-28 05:34N 55°46' E 012°52'1 1.3
2017-Jan-28 04:33N 55°45' E 012°54'0 0.0
2017-Jan-28 03:34N 55°45' E 012°54'0 0.0
2017-Jan-28 02:33N 55°45' E 012°54'0 0.0
2017-Jan-28 01:33N 55°45' E 012°54'0 0.0
2017-Jan-28 00:33N 55°45' E 012°54'0 0.0
2017-Jan-27 23:33N 55°45' E 012°54'0 0.0
2017-Jan-27 22:33N 55°45' E 012°54'0 0.0
2017-Jan-27 21:33N 55°45' E 012°54'0 0.0
2017-Jan-27 20:33N 55°45' E 012°54'0 0.0
2017-Jan-27 19:33N 55°45' E 012°54'0 0.0
2017-Jan-27 18:33N 55°45' E 012°54'0 0.0
2017-Jan-27 17:33N 55°45' E 012°54'0 0.0
2017-Jan-27 16:33N 55°45' E 012°54'0 0.0
2017-Jan-27 15:33N 55°45' E 012°54'0 0.0
2017-Jan-27 14:33N 55°45' E 012°54'0 0.0
2017-Jan-27 13:33N 55°45' E 012°54'0 0.0
2017-Jan-27 12:33N 55°45' E 012°54'0 0.0
2017-Jan-27 11:33N 55°45' E 012°54'4 4.2
2017-Jan-27 10:34N 55°48' E 012°49'1 1.2
2017-Jan-27 09:34N 55°49' E 012°47'0 0.5
2017-Jan-27 08:34N 55°49' E 012°47'0 0.2
2017-Jan-27 07:34N 55°49' E 012°47'1 0.9
2017-Jan-27 06:33N 55°49' E 012°48'5 4.6
2017-Jan-27 05:33N 55°45' E 012°54'0 0.3
2017-Jan-27 04:33N 55°45' E 012°54'0 0.0
2017-Jan-27 03:33N 55°45' E 012°54'0 0.0
2017-Jan-27 02:33N 55°45' E 012°54'0 0.0
2017-Jan-27 01:33N 55°45' E 012°54'0 0.0
2017-Jan-27 00:33N 55°45' E 012°54'0 0.0
2017-Jan-26 23:33N 55°45' E 012°54'0 0.0
2017-Jan-26 22:33N 55°45' E 012°54'0 0.0
2017-Jan-26 21:33N 55°45' E 012°54'0 0.0
2017-Jan-26 20:34N 55°45' E 012°54'0 0.0
2017-Jan-26 19:31N 55°45' E 012°54'0 0.0
2017-Jan-26 18:33N 55°45' E 012°54'0 0.0
2017-Jan-26 17:33N 55°45' E 012°54'0 0.0
2017-Jan-26 16:33N 55°45' E 012°54'0 0.0
2017-Jan-26 15:33N 55°45' E 012°54'0 0.0
2017-Jan-26 14:33N 55°45' E 012°54'0 0.0
2017-Jan-26 13:32N 55°45' E 012°54'0 0.0
2017-Jan-26 12:33N 55°45' E 012°54'0 0.0
2017-Jan-26 11:33N 55°45' E 012°54'0 0.0
2017-Jan-26 10:33N 55°45' E 012°54'0 0.0
2017-Jan-26 09:33N 55°45' E 012°54'0 0.0
2017-Jan-26 08:33N 55°45' E 012°54'0 0.0
2017-Jan-26 07:33N 55°45' E 012°54'0 0.0
2017-Jan-26 06:33N 55°45' E 012°54'0 0.0
2017-Jan-26 05:33N 55°45' E 012°54'0 0.0
2017-Jan-26 04:33N 55°45' E 012°54'0 0.0
2017-Jan-26 03:33N 55°45' E 012°54'0 0.0
2017-Jan-26 02:33N 55°45' E 012°54'0 0.0
2017-Jan-26 01:33N 55°45' E 012°54'0 0.0
2017-Jan-26 00:33N 55°45' E 012°54'0 0.0
2017-Jan-25 23:33N 55°45' E 012°54'0 0.0
2017-Jan-25 22:33N 55°45' E 012°54'0 0.0
2017-Jan-25 21:34N 55°45' E 012°54'0 0.0
2017-Jan-25 20:32N 55°45' E 012°54'0 0.0
2017-Jan-25 19:33N 55°45' E 012°54'0 0.0
2017-Jan-25 18:31N 55°45' E 012°54'0 0.0
2017-Jan-25 17:33N 55°45' E 012°54'3 3.1
2017-Jan-25 16:33N 55°47' E 012°50'2 2.0
2017-Jan-25 15:33N 55°49' E 012°48'0 0.1
2017-Jan-25 14:33N 55°49' E 012°48'0 0.2
2017-Jan-25 13:33N 55°49' E 012°47'0 0.3
2017-Jan-25 12:33N 55°49' E 012°47'0 0.4
2017-Jan-25 11:33N 55°49' E 012°48'0 0.1
2017-Jan-25 10:34N 55°49' E 012°48'0 0.2
2017-Jan-25 09:33N 55°49' E 012°47'0 0.3
2017-Jan-25 08:33N 55°49' E 012°47'0 0.4
2017-Jan-25 07:33N 55°49' E 012°48'0 0.4
2017-Jan-25 06:33N 55°49' E 012°47'5 5.2
2017-Jan-25 05:33N 55°45' E 012°54'0 0.2
2017-Jan-25 04:33N 55°45' E 012°54'0 0.0
2017-Jan-25 03:33N 55°45' E 012°54'0 0.0
2017-Jan-25 02:33N 55°45' E 012°54'0 0.0
2017-Jan-25 01:34N 55°45' E 012°54'0 0.0
2017-Jan-25 00:33N 55°45' E 012°54'0 0.0
2017-Jan-24 23:32N 55°45' E 012°54'0 0.0
2017-Jan-24 22:33N 55°45' E 012°54'0 0.0
2017-Jan-24 21:33N 55°45' E 012°54'0 0.0
2017-Jan-24 20:33N 55°45' E 012°54'0 0.0
2017-Jan-24 19:33N 55°45' E 012°54'0 0.0
2017-Jan-24 18:34N 55°45' E 012°54'0 0.0
2017-Jan-24 17:33N 55°45' E 012°54'0 0.0
2017-Jan-24 16:33N 55°45' E 012°54'0 0.0
2017-Jan-24 15:33N 55°45' E 012°54'5 4.6
2017-Jan-24 14:33N 55°49' E 012°48'0 0.4
2017-Jan-24 13:33N 55°48' E 012°49'2 2.3
2017-Jan-24 12:33N 55°48' E 012°53'1 1.3
2017-Jan-24 11:33N 55°47' E 012°53'3 3.2
2017-Jan-24 10:33N 55°49' E 012°48'0 0.1
2017-Jan-24 09:34N 55°49' E 012°48'0 0.5
2017-Jan-24 08:33N 55°49' E 012°49'1 0.8
2017-Jan-24 07:33N 55°48' E 012°48'0 0.1
2017-Jan-24 06:33N 55°49' E 012°48'4 4.2
2017-Jan-24 05:33N 55°46' E 012°53'1 0.6
2017-Jan-24 04:33N 55°45' E 012°54'0 0.0
2017-Jan-24 03:33N 55°45' E 012°54'0 0.0
2017-Jan-24 02:33N 55°45' E 012°54'0 0.0
2017-Jan-24 01:33N 55°45' E 012°54'0 0.0
2017-Jan-24 00:33N 55°45' E 012°54'0 0.0
2017-Jan-23 23:33N 55°45' E 012°54'0 0.0
2017-Jan-23 22:33N 55°45' E 012°54'0 0.0
2017-Jan-23 21:32N 55°45' E 012°54'0 0.0
2017-Jan-23 20:33N 55°45' E 012°54'0 0.0
2017-Jan-23 19:34N 55°45' E 012°54'0 0.0
2017-Jan-23 18:33N 55°45' E 012°54'0 0.0
2017-Jan-23 17:33N 55°45' E 012°54'1 0.8
2017-Jan-23 16:32N 55°46' E 012°53'4 3.8
2017-Jan-23 15:33N 55°49' E 012°48'1 0.5
2017-Jan-23 14:33N 55°49' E 012°49'0 0.5
2017-Jan-23 13:33N 55°49' E 012°49'1 1.0
2017-Jan-23 12:33N 55°49' E 012°47'7 6.7
2017-Jan-23 11:33N 55°55' E 012°40'1 0.8
2017-Jan-23 10:33N 55°55' E 012°39'1 1.2
2017-Jan-23 09:33N 55°56' E 012°42'6 6.0
2017-Jan-23 08:32N 55°50' E 012°46'1 1.5
2017-Jan-23 07:33N 55°49' E 012°48'0 0.5
2017-Jan-23 06:33N 55°49' E 012°47'6 5.5
2017-Jan-23 05:33N 55°45' E 012°54'0 0.0
2017-Jan-23 04:32N 55°45' E 012°54'0 0.0
2017-Jan-23 03:32N 55°45' E 012°54'0 0.0
2017-Jan-23 02:34N 55°45' E 012°54'0 0.0
2017-Jan-23 01:33N 55°45' E 012°54'0 0.0
2017-Jan-23 00:33N 55°45' E 012°54'0 0.0
2017-Jan-22 23:33N 55°45' E 012°54'0 0.0
2017-Jan-22 22:33N 55°45' E 012°54'0 0.0
2017-Jan-22 21:33N 55°45' E 012°54'0 0.0
2017-Jan-22 20:33N 55°45' E 012°54'0 0.0
2017-Jan-22 19:32N 55°45' E 012°54'0 0.0
2017-Jan-22 18:33N 55°45' E 012°54'0 0.0
2017-Jan-22 17:32N 55°45' E 012°54'0 0.0
2017-Jan-22 16:33N 55°45' E 012°54'0 0.0
2017-Jan-22 15:33N 55°45' E 012°54'0 0.0
2017-Jan-22 14:33N 55°45' E 012°54'0 0.0
2017-Jan-22 13:33N 55°45' E 012°54'0 0.0
2017-Jan-22 12:33N 55°45' E 012°54'5 4.8
2017-Jan-22 11:34N 55°49' E 012°48'1 1.2
2017-Jan-22 10:33N 55°49' E 012°50'0 0.1
2017-Jan-22 09:34N 55°49' E 012°50'4 4.0
2017-Jan-22 08:34N 55°52' E 012°45'1 0.6
2017-Jan-22 07:34N 55°52' E 012°44'6 6.0
2017-Jan-22 06:34N 55°47' E 012°50'3 2.8
2017-Jan-22 05:33N 55°45' E 012°54'0 0.0
2017-Jan-22 04:34N 55°45' E 012°54'0 0.0
2017-Jan-22 03:33N 55°45' E 012°54'0 0.0
2017-Jan-22 02:33N 55°45' E 012°54'0 0.0
2017-Jan-22 01:34N 55°45' E 012°54'0 0.0
2017-Jan-22 00:34N 55°45' E 012°54'0 0.0
2017-Jan-21 23:33N 55°45' E 012°54'0 0.0
2017-Jan-21 22:33N 55°45' E 012°54'0 0.0
2017-Jan-21 21:33N 55°45' E 012°54'0 0.0
2017-Jan-21 20:34N 55°45' E 012°54'0 0.0
2017-Jan-21 19:33N 55°45' E 012°54'0 0.0
2017-Jan-21 18:33N 55°45' E 012°54'0 0.0
2017-Jan-21 17:32N 55°45' E 012°54'0 0.0
2017-Jan-21 16:33N 55°45' E 012°54'0 0.0
2017-Jan-21 15:33N 55°45' E 012°54'0 0.0
2017-Jan-21 14:33N 55°45' E 012°54'0 0.0
2017-Jan-21 13:32N 55°45' E 012°54'3 3.3
2017-Jan-21 12:33N 55°48' E 012°52'2 2.5
2017-Jan-21 11:33N 55°49' E 012°47'0 0.3
2017-Jan-21 10:33N 55°49' E 012°47'1 0.9
2017-Jan-21 09:33N 55°49' E 012°49'1 0.9
2017-Jan-21 08:33N 55°49' E 012°47'0 0.2
2017-Jan-21 07:34N 55°49' E 012°47'1 0.9
2017-Jan-21 06:33N 55°48' E 012°48'4 4.4
2017-Jan-21 05:33N 55°45' E 012°54'0 0.0
2017-Jan-21 04:33N 55°45' E 012°54'0 0.0
2017-Jan-21 03:34N 55°45' E 012°54'0 0.0
2017-Jan-21 02:33N 55°45' E 012°54'0 0.0
2017-Jan-21 01:34N 55°45' E 012°54'0 0.0
2017-Jan-21 00:33N 55°45' E 012°54'0 0.0
2017-Jan-20 23:33N 55°45' E 012°54'0 0.0
2017-Jan-20 22:33N 55°45' E 012°54'0 0.0
2017-Jan-20 21:33N 55°45' E 012°54'0 0.0
2017-Jan-20 20:31N 55°45' E 012°54'0 0.0
2017-Jan-20 19:33N 55°45' E 012°54'0 0.0
2017-Jan-20 18:33N 55°45' E 012°54'1 0.8
2017-Jan-20 17:32N 55°46' E 012°53'4 4.5
2017-Jan-20 16:33N 55°49' E 012°47'1 0.7
2017-Jan-20 15:33N 55°49' E 012°46'1 0.6
2017-Jan-20 14:33N 55°49' E 012°47'2 2.0
2017-Jan-20 13:33N 55°48' E 012°44'0 0.4
2017-Jan-20 12:33N 55°48' E 012°44'2 1.6
2017-Jan-20 11:33N 55°49' E 012°47'1 0.6
2017-Jan-20 10:33N 55°49' E 012°48'0 0.4
2017-Jan-20 09:33N 55°49' E 012°48'0 0.3
2017-Jan-20 08:33N 55°49' E 012°47'5 5.2
2017-Jan-20 07:32N 55°45' E 012°54'0 0.0
2017-Jan-20 06:32N 55°45' E 012°54'0 0.0
2017-Jan-20 05:31N 55°45' E 012°54'0 0.0
2017-Jan-20 04:34N 55°45' E 012°54'0 0.0
2017-Jan-20 03:33N 55°45' E 012°54'0 0.0
2017-Jan-20 02:33N 55°45' E 012°54'0 0.0
2017-Jan-20 01:33N 55°45' E 012°54'0 0.0
2017-Jan-20 00:33N 55°45' E 012°54'0 0.0
2017-Jan-19 23:33N 55°45' E 012°54'0 0.0
2017-Jan-19 22:33N 55°45' E 012°54'0 0.0
2017-Jan-19 21:33N 55°45' E 012°54'0 0.0
2017-Jan-19 20:33N 55°45' E 012°54'0 0.0
2017-Jan-19 19:33N 55°45' E 012°54'0 0.0
2017-Jan-19 18:33N 55°45' E 012°54'1 1.0
2017-Jan-19 17:33N 55°46' E 012°52'5 4.6
2017-Jan-19 16:34N 55°49' E 012°47'0 0.4
2017-Jan-19 15:33N 55°49' E 012°48'2 2.0
2017-Jan-19 14:33N 55°47' E 012°45'1 1.4
2017-Jan-19 13:33N 55°49' E 012°44'1 0.8
2017-Jan-19 12:33N 55°48' E 012°44'2 2.0
2017-Jan-19 11:33N 55°49' E 012°48'0 0.3
2017-Jan-19 10:33N 55°48' E 012°48'0 0.2
2017-Jan-19 09:33N 55°49' E 012°48'1 0.7
2017-Jan-19 08:33N 55°49' E 012°47'1 0.7
2017-Jan-19 07:34N 55°49' E 012°47'0 0.2
2017-Jan-19 06:33N 55°49' E 012°47'4 4.5
2017-Jan-19 05:33N 55°46' E 012°53'1 0.6
2017-Jan-19 04:33N 55°45' E 012°54'  
Track history (hours):
 
Tides and Currents Weather Stations Pressure Air Temp Water Temp Dewpoint Dewpoint Depression Visibility Wind Speed Wind Dir Waves Ship Positions

Kristina

Last reported at 2017-Jan-29 04:23 UTC. Time now 2017-Feb-27 02:06 UTC.
Position N 55°44' E 014°32'.
Warning: this ship's position is 28 days out of date.

Length 11 m; draft 2 m.

Type: Fishing. MMSI: 265630900.

Date/timePositionNaut miles runAvg speedWind from/ knotsBaromVisibWave heightAir tempDewpointWater temp
2017-Jan-29 04:23N 55°44' E 014°32'6 7.0
2017-Jan-29 03:32N 55°38' E 014°28'7 6.9
2017-Jan-29 02:30N 55°32' E 014°23'7 7.3
2017-Jan-29 01:33N 55°26' E 014°18'7 6.8
2017-Jan-29 00:33N 55°20' E 014°11'7 6.8
2017-Jan-28 23:33N 55°19' E 013°59'7 6.5
2017-Jan-28 22:32N 55°19' E 013°47'20 6.4
2017-Jan-28 19:25N 55°18' E 013°12'6 6.2
2017-Jan-28 18:25N 55°18' E 013°01'5 6.1
2017-Jan-28 17:33N 55°18' E 012°52'5 4.5
2017-Jan-28 16:24N 55°21' E 012°44'5 6.1
2017-Jan-28 15:33N 55°26' E 012°44'6 6.0
2017-Jan-28 14:34N 55°32' E 012°46'6 6.0
2017-Jan-28 13:33N 55°36' E 012°52'5 5.0
2017-Jan-28 12:33N 55°41' E 012°55'4 4.1
2017-Jan-28 11:33N 55°45' E 012°54'2 2.4
2017-Jan-28 10:33N 55°48' E 012°54'4 4.0
2017-Jan-28 09:33N 55°49' E 012°47'1 0.9
2017-Jan-28 08:33N 55°49' E 012°47'0 0.4
2017-Jan-28 07:33N 55°49' E 012°47'1 0.8
2017-Jan-28 06:33N 55°48' E 012°48'3 3.4
2017-Jan-28 05:34N 55°46' E 012°52'1 1.3
2017-Jan-28 04:33N 55°45' E 012°54'0 0.0
2017-Jan-28 03:34N 55°45' E 012°54'0 0.0
2017-Jan-28 02:33N 55°45' E 012°54'0 0.0
2017-Jan-28 01:33N 55°45' E 012°54'0 0.0
2017-Jan-28 00:33N 55°45' E 012°54'0 0.0
2017-Jan-27 23:33N 55°45' E 012°54'0 0.0
2017-Jan-27 22:33N 55°45' E 012°54'0 0.0
2017-Jan-27 21:33N 55°45' E 012°54'0 0.0
2017-Jan-27 20:33N 55°45' E 012°54'0 0.0
2017-Jan-27 19:33N 55°45' E 012°54'0 0.0
2017-Jan-27 18:33N 55°45' E 012°54'0 0.0
2017-Jan-27 17:33N 55°45' E 012°54'0 0.0
2017-Jan-27 16:33N 55°45' E 012°54'0 0.0
2017-Jan-27 15:33N 55°45' E 012°54'0 0.0
2017-Jan-27 14:33N 55°45' E 012°54'0 0.0
2017-Jan-27 13:33N 55°45' E 012°54'0 0.0
2017-Jan-27 12:33N 55°45' E 012°54'0 0.0
2017-Jan-27 11:33N 55°45' E 012°54'4 4.2
2017-Jan-27 10:34N 55°48' E 012°49'1 1.2
2017-Jan-27 09:34N 55°49' E 012°47'0 0.5
2017-Jan-27 08:34N 55°49' E 012°47'0 0.2
2017-Jan-27 07:34N 55°49' E 012°47'1 0.9
2017-Jan-27 06:33N 55°49' E 012°48'5 4.6
2017-Jan-27 05:33N 55°45' E 012°54'0 0.3
2017-Jan-27 04:33N 55°45' E 012°54'0 0.0
2017-Jan-27 03:33N 55°45' E 012°54'0 0.0
2017-Jan-27 02:33N 55°45' E 012°54'0 0.0
2017-Jan-27 01:33N 55°45' E 012°54'0 0.0
2017-Jan-27 00:33N 55°45' E 012°54'0 0.0
2017-Jan-26 23:33N 55°45' E 012°54'0 0.0
2017-Jan-26 22:33N 55°45' E 012°54'0 0.0
2017-Jan-26 21:33N 55°45' E 012°54'0 0.0
2017-Jan-26 20:34N 55°45' E 012°54'0 0.0
2017-Jan-26 19:31N 55°45' E 012°54'0 0.0
2017-Jan-26 18:33N 55°45' E 012°54'0 0.0
2017-Jan-26 17:33N 55°45' E 012°54'0 0.0
2017-Jan-26 16:33N 55°45' E 012°54'0 0.0
2017-Jan-26 15:33N 55°45' E 012°54'0 0.0
2017-Jan-26 14:33N 55°45' E 012°54'0 0.0
2017-Jan-26 13:32N 55°45' E 012°54'0 0.0
2017-Jan-26 12:33N 55°45' E 012°54'0 0.0
2017-Jan-26 11:33N 55°45' E 012°54'0 0.0
2017-Jan-26 10:33N 55°45' E 012°54'0 0.0
2017-Jan-26 09:33N 55°45' E 012°54'0 0.0
2017-Jan-26 08:33N 55°45' E 012°54'0 0.0
2017-Jan-26 07:33N 55°45' E 012°54'0 0.0
2017-Jan-26 06:33N 55°45' E 012°54'0 0.0
2017-Jan-26 05:33N 55°45' E 012°54'0 0.0
2017-Jan-26 04:33N 55°45' E 012°54'0 0.0
2017-Jan-26 03:33N 55°45' E 012°54'0 0.0
2017-Jan-26 02:33N 55°45' E 012°54'0 0.0
2017-Jan-26 01:33N 55°45' E 012°54'0 0.0
2017-Jan-26 00:33N 55°45' E 012°54'0 0.0
2017-Jan-25 23:33N 55°45' E 012°54'0 0.0
2017-Jan-25 22:33N 55°45' E 012°54'0 0.0
2017-Jan-25 21:34N 55°45' E 012°54'0 0.0
2017-Jan-25 20:32N 55°45' E 012°54'0 0.0
2017-Jan-25 19:33N 55°45' E 012°54'0 0.0
2017-Jan-25 18:31N 55°45' E 012°54'0 0.0
2017-Jan-25 17:33N 55°45' E 012°54'3 3.1
2017-Jan-25 16:33N 55°47' E 012°50'2 2.0
2017-Jan-25 15:33N 55°49' E 012°48'0 0.1
2017-Jan-25 14:33N 55°49' E 012°48'0 0.2
2017-Jan-25 13:33N 55°49' E 012°47'0 0.3
2017-Jan-25 12:33N 55°49' E 012°47'0 0.4
2017-Jan-25 11:33N 55°49' E 012°48'0 0.1
2017-Jan-25 10:34N 55°49' E 012°48'0 0.2
2017-Jan-25 09:33N 55°49' E 012°47'0 0.3
2017-Jan-25 08:33N 55°49' E 012°47'0 0.4
2017-Jan-25 07:33N 55°49' E 012°48'0 0.4
2017-Jan-25 06:33N 55°49' E 012°47'5 5.2
2017-Jan-25 05:33N 55°45' E 012°54'0 0.2
2017-Jan-25 04:33N 55°45' E 012°54'0 0.0
2017-Jan-25 03:33N 55°45' E 012°54'0 0.0
2017-Jan-25 02:33N 55°45' E 012°54'0 0.0
2017-Jan-25 01:34N 55°45' E 012°54'0 0.0
2017-Jan-25 00:33N 55°45' E 012°54'0 0.0
2017-Jan-24 23:32N 55°45' E 012°54'0 0.0
2017-Jan-24 22:33N 55°45' E 012°54'0 0.0
2017-Jan-24 21:33N 55°45' E 012°54'0 0.0
2017-Jan-24 20:33N 55°45' E 012°54'0 0.0
2017-Jan-24 19:33N 55°45' E 012°54'0 0.0
2017-Jan-24 18:34N 55°45' E 012°54'0 0.0
2017-Jan-24 17:33N 55°45' E 012°54'0 0.0
2017-Jan-24 16:33N 55°45' E 012°54'0 0.0
2017-Jan-24 15:33N 55°45' E 012°54'5 4.6
2017-Jan-24 14:33N 55°49' E 012°48'0 0.4
2017-Jan-24 13:33N 55°48' E 012°49'2 2.3
2017-Jan-24 12:33N 55°48' E 012°53'1 1.3
2017-Jan-24 11:33N 55°47' E 012°53'3 3.2
2017-Jan-24 10:33N 55°49' E 012°48'0 0.1
2017-Jan-24 09:34N 55°49' E 012°48'0 0.5
2017-Jan-24 08:33N 55°49' E 012°49'1 0.8
2017-Jan-24 07:33N 55°48' E 012°48'0 0.1
2017-Jan-24 06:33N 55°49' E 012°48'4 4.2
2017-Jan-24 05:33N 55°46' E 012°53'1 0.6
2017-Jan-24 04:33N 55°45' E 012°54'0 0.0
2017-Jan-24 03:33N 55°45' E 012°54'0 0.0
2017-Jan-24 02:33N 55°45' E 012°54'0 0.0
2017-Jan-24 01:33N 55°45' E 012°54'0 0.0
2017-Jan-24 00:33N 55°45' E 012°54'0 0.0
2017-Jan-23 23:33N 55°45' E 012°54'0 0.0
2017-Jan-23 22:33N 55°45' E 012°54'0 0.0
2017-Jan-23 21:32N 55°45' E 012°54'0 0.0
2017-Jan-23 20:33N 55°45' E 012°54'0 0.0
2017-Jan-23 19:34N 55°45' E 012°54'0 0.0
2017-Jan-23 18:33N 55°45' E 012°54'0 0.0
2017-Jan-23 17:33N 55°45' E 012°54'1 0.8
2017-Jan-23 16:32N 55°46' E 012°53'4 3.8
2017-Jan-23 15:33N 55°49' E 012°48'1 0.5
2017-Jan-23 14:33N 55°49' E 012°49'0 0.5
2017-Jan-23 13:33N 55°49' E 012°49'1 1.0
2017-Jan-23 12:33N 55°49' E 012°47'7 6.7
2017-Jan-23 11:33N 55°55' E 012°40'1 0.8
2017-Jan-23 10:33N 55°55' E 012°39'1 1.2
2017-Jan-23 09:33N 55°56' E 012°42'6 6.0
2017-Jan-23 08:32N 55°50' E 012°46'1 1.5
2017-Jan-23 07:33N 55°49' E 012°48'0 0.5
2017-Jan-23 06:33N 55°49' E 012°47'6 5.5
2017-Jan-23 05:33N 55°45' E 012°54'0 0.0
2017-Jan-23 04:32N 55°45' E 012°54'0 0.0
2017-Jan-23 03:32N 55°45' E 012°54'0 0.0
2017-Jan-23 02:34N 55°45' E 012°54'0 0.0
2017-Jan-23 01:33N 55°45' E 012°54'0 0.0
2017-Jan-23 00:33N 55°45' E 012°54'0 0.0
2017-Jan-22 23:33N 55°45' E 012°54'0 0.0
2017-Jan-22 22:33N 55°45' E 012°54'0 0.0
2017-Jan-22 21:33N 55°45' E 012°54'0 0.0
2017-Jan-22 20:33N 55°45' E 012°54'0 0.0
2017-Jan-22 19:32N 55°45' E 012°54'0 0.0
2017-Jan-22 18:33N 55°45' E 012°54'0 0.0
2017-Jan-22 17:32N 55°45' E 012°54'0 0.0
2017-Jan-22 16:33N 55°45' E 012°54'0 0.0
2017-Jan-22 15:33N 55°45' E 012°54'0 0.0
2017-Jan-22 14:33N 55°45' E 012°54'0 0.0
2017-Jan-22 13:33N 55°45' E 012°54'0 0.0
2017-Jan-22 12:33N 55°45' E 012°54'5 4.8
2017-Jan-22 11:34N 55°49' E 012°48'1 1.2
2017-Jan-22 10:33N 55°49' E 012°50'0 0.1
2017-Jan-22 09:34N 55°49' E 012°50'4 4.0
2017-Jan-22 08:34N 55°52' E 012°45'1 0.6
2017-Jan-22 07:34N 55°52' E 012°44'6 6.0
2017-Jan-22 06:34N 55°47' E 012°50'3 2.8
2017-Jan-22 05:33N 55°45' E 012°54'0 0.0
2017-Jan-22 04:34N 55°45' E 012°54'0 0.0
2017-Jan-22 03:33N 55°45' E 012°54'0 0.0
2017-Jan-22 02:33N 55°45' E 012°54'0 0.0
2017-Jan-22 01:34N 55°45' E 012°54'0 0.0
2017-Jan-22 00:34N 55°45' E 012°54'0 0.0
2017-Jan-21 23:33N 55°45' E 012°54'0 0.0
2017-Jan-21 22:33N 55°45' E 012°54'0 0.0
2017-Jan-21 21:33N 55°45' E 012°54'0 0.0
2017-Jan-21 20:34N 55°45' E 012°54'0 0.0
2017-Jan-21 19:33N 55°45' E 012°54'0 0.0
2017-Jan-21 18:33N 55°45' E 012°54'0 0.0
2017-Jan-21 17:32N 55°45' E 012°54'0 0.0
2017-Jan-21 16:33N 55°45' E 012°54'0 0.0
2017-Jan-21 15:33N 55°45' E 012°54'0 0.0
2017-Jan-21 14:33N 55°45' E 012°54'0 0.0
2017-Jan-21 13:32N 55°45' E 012°54'3 3.3
2017-Jan-21 12:33N 55°48' E 012°52'2 2.5
2017-Jan-21 11:33N 55°49' E 012°47'0 0.3
2017-Jan-21 10:33N 55°49' E 012°47'1 0.9
2017-Jan-21 09:33N 55°49' E 012°49'1 0.9
2017-Jan-21 08:33N 55°49' E 012°47'0 0.2
2017-Jan-21 07:34N 55°49' E 012°47'1 0.9
2017-Jan-21 06:33N 55°48' E 012°48'4 4.4
2017-Jan-21 05:33N 55°45' E 012°54'0 0.0
2017-Jan-21 04:33N 55°45' E 012°54'0 0.0
2017-Jan-21 03:34N 55°45' E 012°54'0 0.0
2017-Jan-21 02:33N 55°45' E 012°54'0 0.0
2017-Jan-21 01:34N 55°45' E 012°54'0 0.0
2017-Jan-21 00:33N 55°45' E 012°54'0 0.0
2017-Jan-20 23:33N 55°45' E 012°54'0 0.0
2017-Jan-20 22:33N 55°45' E 012°54'0 0.0
2017-Jan-20 21:33N 55°45' E 012°54'0 0.0
2017-Jan-20 20:31N 55°45' E 012°54'0 0.0
2017-Jan-20 19:33N 55°45' E 012°54'0 0.0
2017-Jan-20 18:33N 55°45' E 012°54'1 0.8
2017-Jan-20 17:32N 55°46' E 012°53'4 4.5
2017-Jan-20 16:33N 55°49' E 012°47'1 0.7
2017-Jan-20 15:33N 55°49' E 012°46'1 0.6
2017-Jan-20 14:33N 55°49' E 012°47'2 2.0
2017-Jan-20 13:33N 55°48' E 012°44'0 0.4
2017-Jan-20 12:33N 55°48' E 012°44'2 1.6
2017-Jan-20 11:33N 55°49' E 012°47'1 0.6
2017-Jan-20 10:33N 55°49' E 012°48'0 0.4
2017-Jan-20 09:33N 55°49' E 012°48'0 0.3
2017-Jan-20 08:33N 55°49' E 012°47'5 5.2
2017-Jan-20 07:32N 55°45' E 012°54'0 0.0
2017-Jan-20 06:32N 55°45' E 012°54'0 0.0
2017-Jan-20 05:31N 55°45' E 012°54'0 0.0
2017-Jan-20 04:34N 55°45' E 012°54'0 0.0
2017-Jan-20 03:33N 55°45' E 012°54'0 0.0
2017-Jan-20 02:33N 55°45' E 012°54'0 0.0
2017-Jan-20 01:33N 55°45' E 012°54'0 0.0
2017-Jan-20 00:33N 55°45' E 012°54'0 0.0
2017-Jan-19 23:33N 55°45' E 012°54'0 0.0
2017-Jan-19 22:33N 55°45' E 012°54'0 0.0
2017-Jan-19 21:33N 55°45' E 012°54'0 0.0
2017-Jan-19 20:33N 55°45' E 012°54'0 0.0
2017-Jan-19 19:33N 55°45' E 012°54'0 0.0
2017-Jan-19 18:33N 55°45' E 012°54'1 1.0
2017-Jan-19 17:33N 55°46' E 012°52'5 4.6
2017-Jan-19 16:34N 55°49' E 012°47'0 0.4
2017-Jan-19 15:33N 55°49' E 012°48'2 2.0
2017-Jan-19 14:33N 55°47' E 012°45'1 1.4
2017-Jan-19 13:33N 55°49' E 012°44'1 0.8
2017-Jan-19 12:33N 55°48' E 012°44'2 2.0
2017-Jan-19 11:33N 55°49' E 012°48'0 0.3
2017-Jan-19 10:33N 55°48' E 012°48'0 0.2
2017-Jan-19 09:33N 55°49' E 012°48'1 0.7
2017-Jan-19 08:33N 55°49' E 012°47'1 0.7
2017-Jan-19 07:34N 55°49' E 012°47'0 0.2
2017-Jan-19 06:33N 55°49' E 012°47'4 4.5
2017-Jan-19 05:33N 55°46' E 012°53'1 0.6
2017-Jan-19 04:33N 55°45' E 012°54'  

Dump ship's entire track history